map of KAD home
KAD - Airport
Location
City:  Kaduna, Kaduna, Nigeria
Name:Kaduna Airport
ICAO:DNKA
IATA:KAD

Details
Type:Airport (Aerodrome, Airfield)
Use:Public/Civil, Military
Latitude:1041'46"N (10.696025)
Longitude:719'12"E (7.320114)
Datum:WGS 1984
Elevation:2073 ft (632 m)
Variation:0.45W (WMM2015 magnetic declination)
0.10 annual change
Runways:1
Longest:9843 × 197 ft (3000 × 60 m), paved

Time
Time Zone:UTC+1
Local Time:

Weather
TAF:DNKA 160330Z 1606/1712 03007KT CAVOK
BECMG 1610/1612 09014KT

Related Locations
Nearby:
Farthest:AAU: 12237 mi / 19693 km
Asau, WS

Find:

   beyond  
but within

Other Information
Maps:
NOTAMs:
Links:
Sources:

  
  • flag of Nigeria
  

Sectional Chart

Flight Planning
at skyvector.com

Satellite Image

Google Maps Satellite view

 

Copyright © 2004-2018 Karl L. Swartz. All rights reserved.
The Great Circle Mapper name and logo are trademarks of the Great Circle Mapper.
All other trademarks mentioned herein belong to their respective owners.
Please see credits for attibutions and further copyright information.

  Follow gcmap on Facebook Follow gcmap on Twitter Follow gcmap on Google+ GCmap on LinkedIn

hCard Microformat

Geo Microformat